Craigville, Minnesota
Current Conditions -  °F | °C
As of 3:33 PM on Saturday 20 Dec 2014 (Local Time) from KFOZ Reporting Station
Unknown Precip Unknown Precip  
Wind Chill: 23°   Ceiling: 600
Heat Index: 30°   Visibility: 2mi
Dew Point: 28°   Wind: 8mph
Humidity: 93%   Direction: 200°SSW
Pressure: 30.01"   Gusts: NA
Location:  47.8544°N, 93.6219°W
Report Text: KFOZ 202133Z AUTO 20007KT 2SM UP OVC006 M01/M02 A3001 RMK AO2
Loading
Personal Weather Stations






























Interactive Weather Map New forecast layout! Learn more

10-Day Weather Forecast

Advertisements
Track Severe Weather on mobile